Cincinnati, OH

4:49 AM EST on February 06, 2016 (GMT -0500)
Clermont County, Batavia | | Change Station
CLOSE
Current Station
Airport
Location: Clermont County, Batavia,
Elevation: 840 ft
Nearby Weather Stations

Elev 840 ft 39.08 °N, 84.21 °W | Updated 13 minutes ago

Partly Cloudy
Partly Cloudy
27 °F
Feels Like 27 °F
N
0
Wind Variable Wind from North

Today
High -- | Low -- °F
--% Chance of Precip.
Yesterday
High -- | Low -- °F
Precip. -- in
Pressure 30.33 in
Visibility 10.0 miles
Clouds Clear
Dew Point 24 °F
Humidity 88%
Rainfall 0.00 in
Snow Depth Not available.
7:40 AM 6:04 PM
Waning Crescent, 6% visible
METAR KI69 060936Z AUTO 00000KT 10SM CLR M03/M05 A3033 RMK AO2 T10291046
Pressure 30.33 in
Visibility 10.0 miles
Clouds Clear
Dew Point 24 °F
Humidity 88%
Rainfall 0.00 in
Snow Depth Not available.
7:40 AM 6:04 PM
Waning Crescent, 6% visible
METAR KI69 060936Z AUTO 00000KT 10SM CLR M03/M05 A3033 RMK AO2 T10291046

10-Day Weather Forecast

Almanac

Astronomy

Feb. 06, 2016 Rise Set
Actual Time
Civil Twilight
Nautical Twilight
Astronomical Twilight
Moon
Length of Visible Light
Length of Day
Tomorrow will be .
, % of the Moon is Illuminated

Today's Extremes

State Highs State Lows

Community

WunderPhotos

Upload Photos

1,890,933 photos uploaded!

WunderBlog® & News

Nearby

Air Quality

  Air Quality AQ Index Pollutant
Not available.

Snow Depth

Station Depth Elevation

Earthquake Activity

City Distance Mag. Time & Date
Minimum magnitude displayed is 2.5.

Coastal Water Temperatures

Place Temperature

Stations

Nearby Weather Stations

Station Location Temp. Windchill Dew Point Humidity Wind Precip. Elev Updated Type
                   

Watches & Warnings

There are currently no watches in effect.